Platitera Tonouranon — SX7180 — position and weather

sailwx.info

Track history (hours):
 
Tides and Currents Weather Stations Pressure Air Temp Water Temp Dewpoint Dewpoint Depression Visibility Wind Speed Wind Dir Waves Ship Positions

Platitera Tonouranon

Last reported at 2017-Feb-21 17:33 UTC. Time now 2017-Feb-21 19:04 UTC.
Position N 37°56' E 023°41'.

Length 55 m; draft 3.8 m.

Type: Ship (hazmat cat A). MMSI: 237038200.

Date/timePositionNaut miles runAvg speedWind from/ knotsBaromVisibWave heightAir tempDewpointWater temp
2017-Feb-21 17:33N 37°56' E 023°41'9 9.4
2017-Feb-21 16:33N 37°50' E 023°32'7 7.1
2017-Feb-21 15:32N 37°45' E 023°26'0 0.0
2017-Feb-21 14:34N 37°45' E 023°26'5 5.0
2017-Feb-21 13:33N 37°40' E 023°25'6 1.1
2017-Feb-21 07:31N 37°42' E 023°33'1111.6
2017-Feb-21 06:33N 37°52' E 023°38'4 4.5
2017-Feb-21 05:33N 37°56' E 023°41'0 0.0
2017-Feb-19 17:33N 37°56' E 023°41'1111.4
2017-Feb-19 16:34N 37°48' E 023°31'5 5.3
2017-Feb-19 15:34N 37°45' E 023°26'0 0.0
2017-Feb-19 14:33N 37°45' E 023°26'6 6.3
2017-Feb-19 13:33N 37°39' E 023°25'9 1.5
2017-Feb-19 07:25N 37°43' E 023°35'1011.6
2017-Feb-19 06:34N 37°52' E 023°39'4 4.1
2017-Feb-19 05:34N 37°56' E 023°41'0 0.0
2017-Feb-18 17:32N 37°56' E 023°41'1410.5
2017-Feb-18 16:12N 37°48' E 023°27'3 4.0
2017-Feb-18 15:26N 37°45' E 023°26'0 0.0
2017-Feb-18 14:33N 37°45' E 023°26'6 6.1
2017-Feb-18 13:32N 37°38' E 023°25'16 6.7
2017-Feb-18 11:12N 37°23' E 023°30'21 5.6
2017-Feb-18 07:21N 37°44' E 023°37'911.7
2017-Feb-18 06:33N 37°53' E 023°40'3 3.3
2017-Feb-18 05:33N 37°56' E 023°41'0 0.0
2017-Feb-18 04:33N 37°56' E 023°41'0 0.0
2017-Feb-17 17:33N 37°56' E 023°41'9 9.0
2017-Feb-17 16:33N 37°51' E 023°32'8 7.8
2017-Feb-17 15:33N 37°45' E 023°26'0 0.0
2017-Feb-17 14:33N 37°45' E 023°26'4 4.5
2017-Feb-17 13:33N 37°40' E 023°25'1110.5
2017-Feb-17 12:33N 37°30' E 023°27'3 3.1
2017-Feb-17 11:33N 37°28' E 023°30'14 3.5
2017-Feb-17 07:26N 37°41' E 023°38'1011.8
2017-Feb-17 06:33N 37°51' E 023°40'5 5.0
2017-Feb-17 05:33N 37°56' E 023°41'0 0.0
2017-Feb-17 04:33N 37°56' E 023°41'0 0.0
2017-Feb-17 03:33N 37°56' E 023°41'0 0.0
2017-Feb-17 02:33N 37°56' E 023°41'0 0.0
2017-Feb-17 01:33N 37°56' E 023°41'0 0.0
2017-Feb-17 00:33N 37°56' E 023°41'0 0.0
2017-Feb-16 23:34N 37°56' E 023°41'0 0.0
2017-Feb-16 22:33N 37°56' E 023°41'0 0.0
2017-Feb-16 21:33N 37°56' E 023°41'0 0.0
2017-Feb-16 20:33N 37°56' E 023°41'0 0.0
2017-Feb-16 19:33N 37°56' E 023°41'0 0.0
2017-Feb-16 18:33N 37°56' E 023°41'0 0.0
2017-Feb-16 17:33N 37°56' E 023°41'10 9.8
2017-Feb-16 16:33N 37°51' E 023°31'7 7.1
2017-Feb-16 15:31N 37°45' E 023°26'0 0.0
2017-Feb-16 14:31N 37°45' E 023°26'7 6.8
2017-Feb-16 13:27N 37°38' E 023°26'11 1.9
2017-Feb-16 07:32N 37°40' E 023°40'1212.0
2017-Feb-16 06:33N 37°52' E 023°39'4 4.5
2017-Feb-16 05:33N 37°56' E 023°41'0 0.0
2017-Feb-16 04:33N 37°56' E 023°41'0 0.0
2017-Feb-16 01:22N 37°56' E 023°41'0 0.0
2017-Feb-16 00:21N 37°56' E 023°41'0 0.0
2017-Feb-15 23:33N 37°56' E 023°41'0 0.0
2017-Feb-15 22:33N 37°56' E 023°41'0 0.0
2017-Feb-15 21:33N 37°56' E 023°41'0 0.0
2017-Feb-15 20:33N 37°56' E 023°41'0 0.0
2017-Feb-15 19:33N 37°56' E 023°41'0 0.0
2017-Feb-15 18:34N 37°56' E 023°41'0 0.0
2017-Feb-15 17:33N 37°56' E 023°41'0 0.0
2017-Feb-15 16:33N 37°56' E 023°41'0 0.0
2017-Feb-15 15:33N 37°56' E 023°41'0 0.0
2017-Feb-15 14:33N 37°56' E 023°41'0 0.0
2017-Feb-15 13:33N 37°56' E 023°41'0 0.0
2017-Feb-15 12:33N 37°56' E 023°41'0 0.0
2017-Feb-15 11:33N 37°56' E 023°41'0 0.0
2017-Feb-15 10:33N 37°56' E 023°41'0 0.0
2017-Feb-15 09:33N 37°56' E 023°41'0 0.0
2017-Feb-15 08:33N 37°56' E 023°41'0 0.0
2017-Feb-15 07:33N 37°56' E 023°41'0 0.0
2017-Feb-15 06:33N 37°56' E 023°41'0 0.0
2017-Feb-15 00:34N 37°56' E 023°41'0 0.0
2017-Feb-14 23:34N 37°56' E 023°41'0 0.0
2017-Feb-14 22:34N 37°56' E 023°41'0 0.0
2017-Feb-14 21:34N 37°56' E 023°41'0 0.0
2017-Feb-14 20:34N 37°56' E 023°41'0 0.0
2017-Feb-14 19:34N 37°56' E 023°41'0 0.0
2017-Feb-14 18:34N 37°56' E 023°41'0 0.0
2017-Feb-14 17:34N 37°56' E 023°41'1110.9
2017-Feb-14 16:33N 37°50' E 023°30'6 5.8
2017-Feb-14 15:31N 37°45' E 023°26'0 0.0
2017-Feb-14 14:33N 37°45' E 023°26'6 6.3
2017-Feb-14 13:33N 37°39' E 023°27'11 1.8
2017-Feb-14 07:32N 37°42' E 023°40'1212.1
2017-Feb-14 06:33N 37°54' E 023°40'2 0.4
2017-Feb-14 00:34N 37°56' E 023°41'0 0.0
2017-Feb-13 23:34N 37°56' E 023°41'0 0.0
2017-Feb-13 22:34N 37°56' E 023°41'0 0.0
2017-Feb-13 21:34N 37°56' E 023°41'0 0.0
2017-Feb-13 20:34N 37°56' E 023°41'0 0.0
2017-Feb-13 19:34N 37°56' E 023°41'0 0.0
2017-Feb-13 18:34N 37°56' E 023°41'0 0.0
2017-Feb-13 17:34N 37°56' E 023°41'0 0.0
2017-Feb-13 16:34N 37°56' E 023°41'0 0.0
2017-Feb-13 15:34N 37°56' E 023°41'0 0.0
2017-Feb-13 14:34N 37°56' E 023°41'0 0.0
2017-Feb-13 13:33N 37°56' E 023°41'0 0.0
2017-Feb-12 17:31N 37°56' E 023°41'1211.6
2017-Feb-12 16:30N 37°49' E 023°28'5 5.4
2017-Feb-12 15:33N 37°45' E 023°26'0 0.0
2017-Feb-12 14:32N 37°45' E 023°26'13 1.8
2017-Feb-12 07:18N 37°41' E 023°41'912.0
2017-Feb-12 06:33N 37°50' E 023°41'  
Track history (hours):
 
Tides and Currents Weather Stations Pressure Air Temp Water Temp Dewpoint Dewpoint Depression Visibility Wind Speed Wind Dir Waves Ship Positions

Platitera Tonouranon

Last reported at 2017-Feb-21 17:33 UTC. Time now 2017-Feb-21 19:04 UTC.
Position N 37°56' E 023°41'.

Length 55 m; draft 3.8 m.

Type: Ship (hazmat cat A). MMSI: 237038200.

Date/timePositionNaut miles runAvg speedWind from/ knotsBaromVisibWave heightAir tempDewpointWater temp
2017-Feb-21 17:33N 37°56' E 023°41'9 9.4
2017-Feb-21 16:33N 37°50' E 023°32'7 7.1
2017-Feb-21 15:32N 37°45' E 023°26'0 0.0
2017-Feb-21 14:34N 37°45' E 023°26'5 5.0
2017-Feb-21 13:33N 37°40' E 023°25'6 1.1
2017-Feb-21 07:31N 37°42' E 023°33'1111.6
2017-Feb-21 06:33N 37°52' E 023°38'4 4.5
2017-Feb-21 05:33N 37°56' E 023°41'0 0.0
2017-Feb-19 17:33N 37°56' E 023°41'1111.4
2017-Feb-19 16:34N 37°48' E 023°31'5 5.3
2017-Feb-19 15:34N 37°45' E 023°26'0 0.0
2017-Feb-19 14:33N 37°45' E 023°26'6 6.3
2017-Feb-19 13:33N 37°39' E 023°25'9 1.5
2017-Feb-19 07:25N 37°43' E 023°35'1011.6
2017-Feb-19 06:34N 37°52' E 023°39'4 4.1
2017-Feb-19 05:34N 37°56' E 023°41'0 0.0
2017-Feb-18 17:32N 37°56' E 023°41'1410.5
2017-Feb-18 16:12N 37°48' E 023°27'3 4.0
2017-Feb-18 15:26N 37°45' E 023°26'0 0.0
2017-Feb-18 14:33N 37°45' E 023°26'6 6.1
2017-Feb-18 13:32N 37°38' E 023°25'16 6.7
2017-Feb-18 11:12N 37°23' E 023°30'21 5.6
2017-Feb-18 07:21N 37°44' E 023°37'911.7
2017-Feb-18 06:33N 37°53' E 023°40'3 3.3
2017-Feb-18 05:33N 37°56' E 023°41'0 0.0
2017-Feb-18 04:33N 37°56' E 023°41'0 0.0
2017-Feb-17 17:33N 37°56' E 023°41'9 9.0
2017-Feb-17 16:33N 37°51' E 023°32'8 7.8
2017-Feb-17 15:33N 37°45' E 023°26'0 0.0
2017-Feb-17 14:33N 37°45' E 023°26'4 4.5
2017-Feb-17 13:33N 37°40' E 023°25'1110.5
2017-Feb-17 12:33N 37°30' E 023°27'3 3.1
2017-Feb-17 11:33N 37°28' E 023°30'14 3.5
2017-Feb-17 07:26N 37°41' E 023°38'1011.8
2017-Feb-17 06:33N 37°51' E 023°40'5 5.0
2017-Feb-17 05:33N 37°56' E 023°41'0 0.0
2017-Feb-17 04:33N 37°56' E 023°41'0 0.0
2017-Feb-17 03:33N 37°56' E 023°41'0 0.0
2017-Feb-17 02:33N 37°56' E 023°41'0 0.0
2017-Feb-17 01:33N 37°56' E 023°41'0 0.0
2017-Feb-17 00:33N 37°56' E 023°41'0 0.0
2017-Feb-16 23:34N 37°56' E 023°41'0 0.0
2017-Feb-16 22:33N 37°56' E 023°41'0 0.0
2017-Feb-16 21:33N 37°56' E 023°41'0 0.0
2017-Feb-16 20:33N 37°56' E 023°41'0 0.0
2017-Feb-16 19:33N 37°56' E 023°41'0 0.0
2017-Feb-16 18:33N 37°56' E 023°41'0 0.0
2017-Feb-16 17:33N 37°56' E 023°41'10 9.8
2017-Feb-16 16:33N 37°51' E 023°31'7 7.1
2017-Feb-16 15:31N 37°45' E 023°26'0 0.0
2017-Feb-16 14:31N 37°45' E 023°26'7 6.8
2017-Feb-16 13:27N 37°38' E 023°26'11 1.9
2017-Feb-16 07:32N 37°40' E 023°40'1212.0
2017-Feb-16 06:33N 37°52' E 023°39'4 4.5
2017-Feb-16 05:33N 37°56' E 023°41'0 0.0
2017-Feb-16 04:33N 37°56' E 023°41'0 0.0
2017-Feb-16 01:22N 37°56' E 023°41'0 0.0
2017-Feb-16 00:21N 37°56' E 023°41'0 0.0
2017-Feb-15 23:33N 37°56' E 023°41'0 0.0
2017-Feb-15 22:33N 37°56' E 023°41'0 0.0
2017-Feb-15 21:33N 37°56' E 023°41'0 0.0
2017-Feb-15 20:33N 37°56' E 023°41'0 0.0
2017-Feb-15 19:33N 37°56' E 023°41'0 0.0
2017-Feb-15 18:34N 37°56' E 023°41'0 0.0
2017-Feb-15 17:33N 37°56' E 023°41'0 0.0
2017-Feb-15 16:33N 37°56' E 023°41'0 0.0
2017-Feb-15 15:33N 37°56' E 023°41'0 0.0
2017-Feb-15 14:33N 37°56' E 023°41'0 0.0
2017-Feb-15 13:33N 37°56' E 023°41'0 0.0
2017-Feb-15 12:33N 37°56' E 023°41'0 0.0
2017-Feb-15 11:33N 37°56' E 023°41'0 0.0
2017-Feb-15 10:33N 37°56' E 023°41'0 0.0
2017-Feb-15 09:33N 37°56' E 023°41'0 0.0
2017-Feb-15 08:33N 37°56' E 023°41'0 0.0
2017-Feb-15 07:33N 37°56' E 023°41'0 0.0
2017-Feb-15 06:33N 37°56' E 023°41'0 0.0
2017-Feb-15 00:34N 37°56' E 023°41'0 0.0
2017-Feb-14 23:34N 37°56' E 023°41'0 0.0
2017-Feb-14 22:34N 37°56' E 023°41'0 0.0
2017-Feb-14 21:34N 37°56' E 023°41'0 0.0
2017-Feb-14 20:34N 37°56' E 023°41'0 0.0
2017-Feb-14 19:34N 37°56' E 023°41'0 0.0
2017-Feb-14 18:34N 37°56' E 023°41'0 0.0
2017-Feb-14 17:34N 37°56' E 023°41'1110.9
2017-Feb-14 16:33N 37°50' E 023°30'6 5.8
2017-Feb-14 15:31N 37°45' E 023°26'0 0.0
2017-Feb-14 14:33N 37°45' E 023°26'6 6.3
2017-Feb-14 13:33N 37°39' E 023°27'11 1.8
2017-Feb-14 07:32N 37°42' E 023°40'1212.1
2017-Feb-14 06:33N 37°54' E 023°40'2 0.4
2017-Feb-14 00:34N 37°56' E 023°41'0 0.0
2017-Feb-13 23:34N 37°56' E 023°41'0 0.0
2017-Feb-13 22:34N 37°56' E 023°41'0 0.0
2017-Feb-13 21:34N 37°56' E 023°41'0 0.0
2017-Feb-13 20:34N 37°56' E 023°41'0 0.0
2017-Feb-13 19:34N 37°56' E 023°41'0 0.0
2017-Feb-13 18:34N 37°56' E 023°41'0 0.0
2017-Feb-13 17:34N 37°56' E 023°41'0 0.0
2017-Feb-13 16:34N 37°56' E 023°41'0 0.0
2017-Feb-13 15:34N 37°56' E 023°41'0 0.0
2017-Feb-13 14:34N 37°56' E 023°41'0 0.0
2017-Feb-13 13:33N 37°56' E 023°41'0 0.0
2017-Feb-12 17:31N 37°56' E 023°41'1211.6
2017-Feb-12 16:30N 37°49' E 023°28'5 5.4
2017-Feb-12 15:33N 37°45' E 023°26'0 0.0
2017-Feb-12 14:32N 37°45' E 023°26'13 1.8
2017-Feb-12 07:18N 37°41' E 023°41'912.0
2017-Feb-12 06:33N 37°50' E 023°41'  

Dump ship's entire track history